createdAt,value
2019-05-07T00:02:18.931Z,0.57
2019-05-07T00:07:42.515Z,0.53
2019-05-07T00:13:04.379Z,0.62
2019-05-07T00:18:25.922Z,0.60
2019-05-07T00:23:47.172Z,1.10
2019-05-07T00:29:08.748Z,0.33
2019-05-07T00:34:37.101Z,0.60
2019-05-07T00:40:12.934Z,0.72
2019-05-07T00:45:46.647Z,1.07
2019-05-07T00:51:33.130Z,0.33
2019-05-07T00:56:54.810Z,0.75
2019-05-07T01:02:16.441Z,0.13
2019-05-07T01:07:38.303Z,0.50
2019-05-07T01:13:00.019Z,0.00
2019-05-07T01:18:23.303Z,0.23
2019-05-07T01:23:45.527Z,0.30
2019-05-07T01:29:07.131Z,0.47
2019-05-07T01:34:35.369Z,0.13
2019-05-07T01:39:57.255Z,0.62
2019-05-07T01:45:19.099Z,0.47
2019-05-07T01:50:42.807Z,0.30
2019-05-07T01:56:04.032Z,0.35
2019-05-07T02:01:25.489Z,0.00
2019-05-07T02:07:05.119Z,0.17
2019-05-07T02:12:31.997Z,0.00
2019-05-07T02:17:54.262Z,0.00
2019-05-07T02:23:15.900Z,0.05
2019-05-07T02:28:37.854Z,0.42
2019-05-07T02:34:02.536Z,0.15
2019-05-07T02:39:34.059Z,0.10
2019-05-07T02:45:05.723Z,0.10
2019-05-07T02:50:33.513Z,0.00
2019-05-07T02:55:56.666Z,0.10
2019-05-07T03:01:18.383Z,0.00
2019-05-07T03:06:39.722Z,0.00
2019-05-07T03:12:03.992Z,0.10
2019-05-07T03:17:25.098Z,0.03
2019-05-07T03:22:47.103Z,0.78
2019-05-07T03:28:08.976Z,0.45
2019-05-07T03:33:47.147Z,0.15
2019-05-07T03:39:08.174Z,0.72
2019-05-07T03:44:53.619Z,0.25
2019-05-07T03:50:15.037Z,0.00
2019-05-07T03:55:36.818Z,0.10
2019-05-07T04:00:58.362Z,0.55
2019-05-07T04:06:19.898Z,0.00
2019-05-07T04:11:43.322Z,0.10
2019-05-07T04:17:14.462Z,0.10
2019-05-07T04:22:29.283Z,0.00
2019-05-07T04:28:14.104Z,0.33
2019-05-07T04:33:40.120Z,0.35
2019-05-07T04:39:03.069Z,0.35
2019-05-07T04:44:25.054Z,0.35
2019-05-07T04:49:46.728Z,0.40
2019-05-07T04:55:08.652Z,0.30
2019-05-07T05:00:33.352Z,0.20
2019-05-07T05:05:54.216Z,1.75
2019-05-07T05:11:15.752Z,0.62
2019-05-07T05:16:37.269Z,0.03
2019-05-07T05:22:18.610Z,0.13
2019-05-07T05:27:40.387Z,0.00
2019-05-07T05:33:04.252Z,0.03
2019-05-07T05:38:25.772Z,0.00
2019-05-07T05:43:58.072Z,0.37
2019-05-07T05:49:19.921Z,0.47
2019-05-07T05:55:04.585Z,0.00
2019-05-07T06:00:48.554Z,0.00
2019-05-07T06:06:32.725Z,0.20
2019-05-07T06:12:22.074Z,0.10
2019-05-07T06:18:17.692Z,0.10
2019-05-07T06:23:37.840Z,0.00
2019-05-07T06:28:59.392Z,0.40
2019-05-07T06:34:21.983Z,0.00
2019-05-07T06:40:06.235Z,0.00
2019-05-07T06:45:33.243Z,0.10
2019-05-07T06:50:57.754Z,0.10
2019-05-07T06:56:19.548Z,0.20
2019-05-07T07:01:49.710Z,0.00
2019-05-07T07:07:27.577Z,0.00
2019-05-07T07:12:43.094Z,0.30
2019-05-07T07:18:05.168Z,0.00
2019-05-07T07:23:27.093Z,0.42
2019-05-07T07:28:48.713Z,0.17
2019-05-07T07:34:12.811Z,0.00
2019-05-07T07:39:34.001Z,0.10
2019-05-07T07:45:14.592Z,0.00
2019-05-07T07:50:36.243Z,0.10
2019-05-07T07:56:16.114Z,0.20
2019-05-07T08:01:49.297Z,0.00
2019-05-07T08:07:12.403Z,0.00
2019-05-07T08:12:34.637Z,0.00
2019-05-07T08:17:56.655Z,0.00
2019-05-07T08:23:18.206Z,0.10
2019-05-07T08:28:41.862Z,0.00
2019-05-07T08:34:25.673Z,0.00
2019-05-07T08:39:47.530Z,0.00
2019-05-07T08:45:27.348Z,0.10
2019-05-07T08:50:49.537Z,0.00
2019-05-07T08:56:12.481Z,0.10
2019-05-07T09:01:34.939Z,1.15
2019-05-07T09:06:56.323Z,0.00
2019-05-07T09:12:18.098Z,0.35
2019-05-07T09:17:39.655Z,0.20
2019-05-07T09:23:02.093Z,0.00
2019-05-07T09:28:25.613Z,0.00
2019-05-07T09:33:49.145Z,0.23
2019-05-07T09:39:12.126Z,0.10
2019-05-07T09:44:34.476Z,0.17
2019-05-07T09:50:04.514Z,0.47
2019-05-07T09:55:19.702Z,0.00
2019-05-07T10:00:42.457Z,0.10
2019-05-07T10:06:04.201Z,0.00
2019-05-07T10:11:35.890Z,0.05
2019-05-07T10:17:09.515Z,0.37
2019-05-07T10:22:32.166Z,0.10
2019-05-07T10:27:54.176Z,0.15
2019-05-07T10:33:16.013Z,0.23
2019-05-07T10:38:37.619Z,0.00
2019-05-07T10:43:59.156Z,0.42
2019-05-07T10:49:27.968Z,0.05
2019-05-07T10:54:58.399Z,0.80
2019-05-07T11:00:16.271Z,0.35
2019-05-07T11:05:37.990Z,0.00
2019-05-07T11:10:59.812Z,0.30
2019-05-07T11:16:24.983Z,0.10
2019-05-07T11:21:46.820Z,0.17
2019-05-07T11:27:08.351Z,0.30
2019-05-07T11:32:29.658Z,0.47
2019-05-07T11:37:52.071Z,0.47
2019-05-07T11:43:33.153Z,0.42
2019-05-07T11:49:01.056Z,2.10
2019-05-07T11:54:22.856Z,3.27
2019-05-07T11:59:44.728Z,2.37
2019-05-07T12:05:06.435Z,2.20
2019-05-07T12:10:28.022Z,2.50
2019-05-07T12:15:51.598Z,2.50
2019-05-07T12:21:20.214Z,3.60
2019-05-07T12:26:39.172Z,2.77
2019-05-07T12:32:24.513Z,2.85
2019-05-07T12:37:49.458Z,2.90
2019-05-07T12:43:10.639Z,2.83
2019-05-07T12:48:32.674Z,3.47
2019-05-07T12:53:59.322Z,3.00
2019-05-07T12:59:21.852Z,3.02
2019-05-07T13:04:43.925Z,3.08
2019-05-07T13:10:08.568Z,2.75
2019-05-07T13:15:32.668Z,2.67
2019-05-07T13:20:54.616Z,2.60
2019-05-07T13:26:16.040Z,2.72
2019-05-07T13:31:38.928Z,2.72
2019-05-07T13:37:05.353Z,2.62
2019-05-07T13:43:02.881Z,2.85
2019-05-07T13:48:25.536Z,3.35
2019-05-07T13:53:47.693Z,3.30
2019-05-07T13:59:12.995Z,3.45
2019-05-07T14:04:34.259Z,3.45
2019-05-07T14:09:56.306Z,3.33
2019-05-07T14:15:18.552Z,3.95
2019-05-07T14:20:42.392Z,4.30
2019-05-07T14:26:03.939Z,3.27
2019-05-07T14:31:26.169Z,3.62
2019-05-07T14:37:07.660Z,3.80
2019-05-07T14:42:38.535Z,3.12
2019-05-07T14:48:00.154Z,3.65
2019-05-07T14:53:22.521Z,3.40
2019-05-07T14:58:44.265Z,3.55
2019-05-07T15:04:06.105Z,3.58
2019-05-07T15:09:28.255Z,3.15
2019-05-07T15:14:50.053Z,3.15
2019-05-07T15:20:11.808Z,3.75
2019-05-07T15:25:33.608Z,3.62
2019-05-07T15:31:12.296Z,3.72
2019-05-07T15:36:34.158Z,3.77
2019-05-07T15:41:55.723Z,3.70
2019-05-07T15:47:22.728Z,4.58
2019-05-07T15:52:58.644Z,5.37
2019-05-07T15:58:17.004Z,5.08
2019-05-07T16:03:42.885Z,5.70
2019-05-07T16:09:07.209Z,5.10
2019-05-07T16:14:29.032Z,5.20
2019-05-07T16:19:54.598Z,6.20
2019-05-07T16:25:14.869Z,6.65
2019-05-07T16:30:36.496Z,5.55
2019-05-07T16:35:58.187Z,6.85
2019-05-07T16:41:19.858Z,6.87
2019-05-07T16:46:42.237Z,7.83
2019-05-07T16:52:07.425Z,7.65
2019-05-07T16:58:07.195Z,7.47
2019-05-07T17:03:35.287Z,7.67
2019-05-07T17:09:02.587Z,7.90
2019-05-07T17:14:24.223Z,8.55
2019-05-07T17:19:45.973Z,8.93
2019-05-07T17:25:27.278Z,8.68
2019-05-07T17:30:49.229Z,9.25
2019-05-07T17:36:12.104Z,9.03
2019-05-07T17:41:34.355Z,9.35
2019-05-07T17:46:56.107Z,10.40
2019-05-07T17:52:17.762Z,10.40
2019-05-07T17:57:41.769Z,10.53
2019-05-07T18:03:15.678Z,8.85
2019-05-07T18:08:37.289Z,9.80
2019-05-07T18:13:58.776Z,8.93
2019-05-07T18:19:22.210Z,9.48
2019-05-07T18:24:43.667Z,9.83
2019-05-07T18:30:06.289Z,9.45
2019-05-07T18:35:28.491Z,9.60
2019-05-07T18:40:50.261Z,8.93
2019-05-07T18:46:12.816Z,9.28
2019-05-07T18:51:34.961Z,7.83
2019-05-07T18:56:56.593Z,7.00
2019-05-07T19:02:18.756Z,6.28
2019-05-07T19:07:41.735Z,5.97
2019-05-07T19:13:04.210Z,4.53
2019-05-07T19:18:26.371Z,5.15
2019-05-07T19:23:50.029Z,5.03
2019-05-07T19:29:12.657Z,4.65
2019-05-07T19:34:34.585Z,4.85
2019-05-07T19:39:56.376Z,5.00
2019-05-07T19:45:21.673Z,5.42
2019-05-07T19:50:42.110Z,6.40
2019-05-07T19:56:16.647Z,5.55
2019-05-07T20:01:52.845Z,5.80
2019-05-07T20:07:14.863Z,6.05
2019-05-07T20:12:36.449Z,6.87
2019-05-07T20:17:58.187Z,7.10
2019-05-07T20:23:19.617Z,7.47
2019-05-07T20:28:41.878Z,7.80
2019-05-07T20:34:03.642Z,8.75
2019-05-07T20:39:25.470Z,7.08
2019-05-07T20:44:47.181Z,8.90
2019-05-07T20:50:08.898Z,7.53
2019-05-07T20:55:53.066Z,7.60
2019-05-07T21:01:14.773Z,6.53
2019-05-07T21:06:36.738Z,6.05
2019-05-07T21:11:58.371Z,5.37
2019-05-07T21:17:20.018Z,4.33
2019-05-07T21:22:42.519Z,3.35
2019-05-07T21:28:04.093Z,3.80
2019-05-07T21:33:25.789Z,3.65
2019-05-07T21:38:47.446Z,3.52
2019-05-07T21:44:09.242Z,4.30
2019-05-07T21:49:32.301Z,4.70
2019-05-07T21:55:02.392Z,4.33
2019-05-07T22:00:44.557Z,4.65
2019-05-07T22:06:09.711Z,4.40
2019-05-07T22:11:32.304Z,4.15
2019-05-07T22:16:54.607Z,3.52
2019-05-07T22:22:16.407Z,3.72
2019-05-07T22:27:38.309Z,3.62
2019-05-07T22:33:05.384Z,3.67
2019-05-07T22:38:26.621Z,4.12
2019-05-07T22:43:48.347Z,4.62
2019-05-07T22:49:12.090Z,4.47
2019-05-07T22:54:33.909Z,4.80
2019-05-07T22:59:55.503Z,5.83
2019-05-07T23:05:16.973Z,5.67
2019-05-07T23:10:38.705Z,5.92
2019-05-07T23:16:02.300Z,5.75
2019-05-07T23:21:24.667Z,4.67
2019-05-07T23:26:50.506Z,5.70
2019-05-07T23:32:12.628Z,5.35
2019-05-07T23:37:34.500Z,5.62
2019-05-07T23:42:57.976Z,5.05
2019-05-07T23:48:19.688Z,5.45
2019-05-07T23:53:44.189Z,6.20
2019-05-07T23:59:05.023Z,5.70
